Time;durP1;ratioP1;P1;durP2;ratioP2;P2;SDS_P1;SDS_P2;PMS_P1;PMS_P2;Temp;Humidity;BMP_temperature;BMP_pressure;BME280_temperature;BME280_humidity;BME280_pressure;Samples;Min_cycle;Max_cycle;Signal;HPM_P1;HPM_P2
2022/02/16 00:00:31;;;;;;;13.63;1.45;;;5.00;99.90;;;-146.41;100.00;57768.22;4940757;29;20097;-67
2022/02/16 00:02:59;;;;;;;5.82;1.25;;;5.10;99.90;;;-146.41;100.00;57768.22;4941530;28;20058;-66
2022/02/16 00:05:26;;;;;;;12.20;1.60;;;5.00;99.90;;;-146.41;100.00;57768.22;4938805;29;20090;-67
2022/02/16 00:07:52;;;;;;;7.07;1.10;;;5.00;99.90;;;-146.41;100.00;57768.22;4941612;28;20082;-67
2022/02/16 00:10:21;;;;;;;8.40;1.38;;;5.00;99.90;;;-146.41;100.00;57768.22;4938363;28;20341;-67
2022/02/16 00:12:48;;;;;;;9.80;1.65;;;5.00;99.90;;;-146.41;100.00;57768.22;4944917;28;20102;-66
2022/02/16 00:15:15;;;;;;;8.40;2.50;;;5.00;99.90;;;-146.41;100.00;57768.22;4940777;29;20130;-66
2022/02/16 00:17:42;;;;;;;7.97;1.73;;;5.00;99.90;;;-146.41;100.00;57768.22;4938645;28;20198;-66
2022/02/16 00:20:11;;;;;;;9.43;1.40;;;4.90;99.90;;;-146.41;100.00;57768.22;4938060;28;20059;-66
2022/02/16 00:22:39;;;;;;;8.20;1.40;;;4.90;99.90;;;-146.41;100.00;57768.22;4922681;28;20058;-66
2022/02/16 00:25:07;;;;;;;8.90;1.80;;;5.00;99.90;;;-146.41;100.00;57768.22;4928946;29;20138;-66
2022/02/16 00:27:33;;;;;;;5.43;1.10;;;5.00;99.90;;;-146.41;100.00;57768.22;4944785;28;20075;-66
2022/02/16 00:30:00;;;;;;;6.30;1.27;;;5.00;99.90;;;-146.41;100.00;57768.22;4928269;28;20043;-66
2022/02/16 00:32:28;;;;;;;11.90;1.38;;;5.00;99.90;;;-146.41;100.00;57768.22;4940176;28;20143;-66
2022/02/16 00:34:55;;;;;;;11.10;1.00;;;5.00;99.90;;;-146.41;100.00;57768.22;4940583;28;20130;-67
2022/02/16 00:37:22;;;;;;;13.65;1.25;;;4.90;99.90;;;-146.41;100.00;57768.22;4940237;28;20068;-66
2022/02/16 00:39:49;;;;;;;8.63;1.83;;;5.00;99.90;;;-146.41;100.00;57768.22;4943019;28;20077;-66
2022/02/16 00:42:16;;;;;;;8.35;1.13;;;5.00;99.90;;;-146.41;100.00;57768.22;4938687;28;20138;-67
2022/02/16 00:44:43;;;;;;;7.75;1.30;;;4.90;99.90;;;-146.41;100.00;57768.22;4938050;28;20139;-66
2022/02/16 00:47:12;;;;;;;10.10;1.63;;;4.90;99.90;;;-146.41;100.00;57768.22;4942767;28;20083;-67
2022/02/16 00:49:39;;;;;;;9.57;1.85;;;5.00;99.90;;;-146.41;100.00;57768.22;4940880;28;20051;-67
2022/02/16 00:52:06;;;;;;;8.30;1.55;;;5.00;99.90;;;-146.41;100.00;57768.22;4942214;28;20050;-67
2022/02/16 00:54:35;;;;;;;7.43;1.23;;;4.90;99.90;;;-146.41;100.00;57768.22;4937611;28;20138;-66
2022/02/16 00:57:02;;;;;;;8.45;1.60;;;5.00;99.90;;;-146.41;100.00;57768.22;4942972;28;20118;-66
2022/02/16 00:59:30;;;;;;;9.32;1.45;;;5.00;99.90;;;-146.41;100.00;57768.22;4941754;29;20424;-66
2022/02/16 01:01:58;;;;;;;10.13;1.50;;;4.90;99.90;;;-146.41;100.00;57768.22;4941173;28;20173;-66
2022/02/16 01:04:25;;;;;;;5.50;1.50;;;5.00;99.90;;;-146.41;100.00;57768.22;4943366;29;20055;-66
2022/02/16 01:06:53;;;;;;;6.97;1.23;;;4.90;99.90;;;-146.41;100.00;57768.22;4945486;29;20059;-66
2022/02/16 01:09:20;;;;;;;7.90;1.58;;;4.90;99.90;;;-146.41;100.00;57768.22;4943719;29;20155;-66
2022/02/16 01:11:47;;;;;;;7.28;1.50;;;4.90;99.90;;;-146.41;100.00;57768.22;4937948;29;20108;-66
2022/02/16 01:14:14;;;;;;;9.27;1.70;;;4.90;99.90;;;-146.41;100.00;57768.22;4944073;29;20134;-66
2022/02/16 01:16:41;;;;;;;11.50;1.73;;;4.90;99.90;;;-146.41;100.00;57768.22;4942002;29;20070;-67
2022/02/16 01:19:08;;;;;;;7.55;1.70;;;4.90;99.90;;;-146.41;100.00;57768.22;4943513;29;20134;-66
2022/02/16 01:21:36;;;;;;;8.63;1.90;;;4.90;99.90;;;-146.41;100.00;57768.22;4937266;28;20154;-66
2022/02/16 01:24:03;;;;;;;9.00;2.15;;;4.90;99.90;;;-146.41;100.00;57768.22;4940553;28;20141;-66
2022/02/16 01:26:30;;;;;;;4.93;1.20;;;4.90;99.90;;;-146.41;100.00;57768.22;4941965;28;20170;-67
2022/02/16 01:28:58;;;;;;;6.35;1.52;;;5.00;99.90;;;-146.41;100.00;57768.22;4942536;29;20151;-67
2022/02/16 01:31:25;;;;;;;5.78;1.20;;;4.90;99.90;;;-146.41;100.00;57768.22;4939546;28;20143;-66
2022/02/16 01:33:52;;;;;;;7.68;1.45;;;4.90;99.90;;;-146.41;100.00;57768.22;4942515;29;20206;-67
2022/02/16 01:36:19;;;;;;;6.30;1.02;;;4.90;99.90;;;-146.41;100.00;57768.22;4947850;28;20579;-66
2022/02/16 01:38:46;;;;;;;8.13;1.60;;;5.00;99.90;;;-146.41;100.00;57768.22;4944128;28;20591;-66
2022/02/16 01:41:16;;;;;;;8.77;1.83;;;4.90;99.90;;;-146.41;100.00;57768.22;4948401;28;20493;-67
2022/02/16 01:43:52;;;;;;;5.93;1.45;;;5.00;99.90;;;-146.41;100.00;57768.22;4945319;29;20475;-66
2022/02/16 01:46:19;;;;;;;5.55;1.20;;;5.00;99.90;;;-146.41;100.00;57768.22;4946363;28;20080;-67
2022/02/16 01:48:47;;;;;;;4.72;1.20;;;5.00;99.90;;;-146.41;100.00;57768.22;4943472;28;20186;-66
2022/02/16 01:51:14;;;;;;;6.90;1.42;;;5.00;99.90;;;-146.41;100.00;57768.22;4943247;28;20130;-66
2022/02/16 01:53:41;;;;;;;7.20;1.40;;;5.00;99.90;;;-146.41;100.00;57768.22;4947707;28;20498;-67
2022/02/16 01:56:09;;;;;;;5.28;1.30;;;5.00;99.90;;;-146.41;100.00;57768.22;4946978;28;20075;-66
2022/02/16 01:58:36;;;;;;;6.38;1.10;;;5.00;99.90;;;-146.41;100.00;57768.22;4947014;28;20047;-67
2022/02/16 02:01:07;;;;;;;6.50;1.38;;;5.00;99.90;;;-146.41;100.00;57768.22;4942926;28;20365;-67
2022/02/16 02:03:34;;;;;;;6.18;1.30;;;5.10;99.90;;;-146.41;100.00;57768.22;4941810;28;20086;-66
2022/02/16 02:06:01;;;;;;;6.72;1.20;;;5.10;99.90;;;-146.41;100.00;57768.22;4945373;28;20543;-67
2022/02/16 02:08:30;;;;;;;8.18;1.63;;;5.10;99.90;;;-146.41;100.00;57768.22;4943682;28;20059;-67
2022/02/16 02:10:57;;;;;;;4.43;1.10;;;5.00;99.90;;;-146.41;100.00;57768.22;4942728;28;20130;-66
2022/02/16 02:13:25;;;;;;;8.27;1.13;;;5.10;99.90;;;-146.41;100.00;57768.22;4928661;29;20043;-67
2022/02/16 02:15:52;;;;;;;6.05;0.82;;;5.10;99.90;;;-146.41;100.00;57768.22;4943991;28;20145;-66
2022/02/16 02:18:20;;;;;;;4.55;0.73;;;5.10;99.90;;;-146.41;100.00;57768.22;4942745;28;20427;-66
2022/02/16 02:20:47;;;;;;;6.32;1.50;;;5.10;99.90;;;-146.41;100.00;57768.22;4944658;28;20126;-66
2022/02/16 02:23:14;;;;;;;5.35;1.23;;;5.10;99.90;;;-146.41;100.00;57768.22;4944568;29;20138;-66
2022/02/16 02:25:54;;;;;;;7.13;1.10;;;5.10;99.90;;;-146.41;100.00;57768.22;4928729;29;20501;-66
2022/02/16 02:28:24;;;;;;;6.93;1.10;;;5.10;99.90;;;-146.41;100.00;57768.22;4941629;28;20078;-66
2022/02/16 02:30:52;;;;;;;4.43;1.02;;;5.10;99.90;;;-146.41;100.00;57768.22;4944641;28;20043;-66
2022/02/16 02:33:19;;;;;;;4.50;0.90;;;5.10;99.90;;;-146.41;100.00;57768.22;4942345;28;20054;-67
2022/02/16 02:35:46;;;;;;;4.65;0.70;;;5.10;99.90;;;-146.41;100.00;57768.22;4949509;28;20126;-67
2022/02/16 02:38:13;;;;;;;6.63;1.77;;;5.10;99.90;;;-146.41;100.00;57768.22;4942406;28;20532;-67
2022/02/16 02:40:40;;;;;;;2.38;0.95;;;5.10;99.90;;;-146.41;100.00;57768.22;4940770;28;20112;-67
2022/02/16 02:43:07;;;;;;;9.52;1.40;;;5.10;99.90;;;-146.41;100.00;57768.22;4944647;28;20051;-65
2022/02/16 02:45:36;;;;;;;2.40;0.80;;;5.10;99.90;;;-146.41;100.00;57768.22;4947504;28;20077;-65
2022/02/16 02:48:03;;;;;;;3.85;0.90;;;5.10;99.90;;;-146.41;100.00;57768.22;4926816;29;20126;-68
2022/02/16 02:50:30;;;;;;;6.45;1.10;;;5.10;99.90;;;-146.41;100.00;57768.22;4942582;28;20050;-65
2022/02/16 02:52:57;;;;;;;3.28;1.25;;;5.10;99.90;;;-146.41;100.00;57768.22;4943213;28;20131;-65
2022/02/16 02:55:24;;;;;;;3.92;1.10;;;5.10;99.90;;;-146.41;100.00;57768.22;4942850;28;20075;-65
2022/02/16 02:57:51;;;;;;;2.92;0.73;;;5.10;99.90;;;-146.41;100.00;57768.22;4938279;28;20122;-65
2022/02/16 03:00:18;;;;;;;11.02;1.25;;;5.20;99.90;;;-146.41;100.00;57768.22;4942088;28;20166;-67
2022/02/16 03:02:45;;;;;;;3.42;1.10;;;5.10;99.90;;;-146.41;100.00;57768.22;4942298;28;20051;-67
2022/02/16 03:05:12;;;;;;;4.25;0.95;;;5.10;99.90;;;-146.41;100.00;57768.22;4943169;28;20051;-68
2022/02/16 03:07:40;;;;;;;2.78;0.70;;;5.20;99.90;;;-146.41;100.00;57768.22;4942666;28;20434;-67
2022/02/16 03:10:08;;;;;;;4.05;0.88;;;5.20;99.90;;;-146.41;100.00;57768.22;4927645;28;20222;-67
2022/02/16 03:12:35;;;;;;;4.70;0.80;;;5.20;99.90;;;-146.41;100.00;57768.22;4944196;29;20130;-67
2022/02/16 03:15:02;;;;;;;4.18;0.90;;;5.20;99.90;;;-146.41;100.00;57768.22;4941324;29;20044;-67
2022/02/16 03:17:29;;;;;;;2.97;0.90;;;5.20;99.90;;;-146.41;100.00;57768.22;4940396;29;20086;-67
2022/02/16 03:19:56;;;;;;;3.65;0.70;;;5.20;99.90;;;-146.41;100.00;57768.22;4938414;28;20127;-67
2022/02/16 03:22:23;;;;;;;2.53;0.70;;;5.20;99.90;;;-146.41;100.00;57768.22;4943741;28;20051;-67
2022/02/16 03:24:51;;;;;;;4.00;0.70;;;5.20;99.90;;;-146.41;100.00;57768.22;4945538;28;21734;-67
2022/02/16 03:27:18;;;;;;;2.55;0.77;;;5.10;99.90;;;-146.41;100.00;57768.22;4943661;28;20392;-67
2022/02/16 03:29:45;;;;;;;2.03;0.93;;;5.10;99.90;;;-146.41;100.00;57768.22;4942161;28;20050;-67
2022/02/16 03:32:12;;;;;;;4.38;1.10;;;5.10;99.90;;;-146.41;100.00;57768.22;4942925;29;20160;-67
2022/02/16 03:34:40;;;;;;;4.30;0.93;;;5.10;99.90;;;-146.41;100.00;57768.22;4946142;29;20057;-67
2022/02/16 03:37:08;;;;;;;5.97;0.70;;;5.20;99.90;;;-146.41;100.00;57768.22;4944263;28;20117;-67
2022/02/16 03:39:36;;;;;;;3.70;0.90;;;5.20;99.90;;;-146.41;100.00;57768.22;4943178;28;20139;-67
2022/02/16 03:42:03;;;;;;;3.70;0.90;;;5.20;99.90;;;-146.41;100.00;57768.22;4941972;28;20190;-67
2022/02/16 03:44:30;;;;;;;3.53;0.60;;;5.20;99.90;;;-146.41;100.00;57768.22;4924771;29;20055;-67
2022/02/16 03:46:58;;;;;;;4.78;0.95;;;5.20;99.90;;;-146.41;100.00;57768.22;4944341;28;20130;-67
2022/02/16 03:49:25;;;;;;;3.90;1.00;;;5.20;99.90;;;-146.41;100.00;57768.22;4941745;29;20088;-67
2022/02/16 03:51:52;;;;;;;3.28;1.10;;;5.20;99.90;;;-146.41;100.00;57768.22;4937852;28;20150;-67
2022/02/16 03:54:20;;;;;;;4.13;0.80;;;5.20;99.90;;;-146.41;100.00;57768.22;4941731;28;20069;-67
2022/02/16 03:56:47;;;;;;;3.67;0.77;;;5.20;99.90;;;-146.41;100.00;57768.22;4929603;29;20112;-67
2022/02/16 03:59:14;;;;;;;3.20;1.08;;;5.30;99.90;;;-146.41;100.00;57768.22;4942493;28;20051;-67
2022/02/16 04:01:41;;;;;;;3.47;0.90;;;5.30;99.90;;;-146.41;100.00;57768.22;4941342;28;20484;-67
2022/02/16 04:04:08;;;;;;;2.90;0.70;;;5.20;99.90;;;-146.41;100.00;57768.22;4942221;28;20061;-67
2022/02/16 04:06:35;;;;;;;4.05;0.85;;;5.20;99.90;;;-146.41;100.00;57768.22;4942772;28;20606;-68
2022/02/16 04:09:03;;;;;;;3.85;0.80;;;5.20;99.90;;;-146.41;100.00;57768.22;4941227;28;20151;-67
2022/02/16 04:11:30;;;;;;;2.63;0.85;;;5.30;99.90;;;-146.41;100.00;57768.22;4941891;28;20055;-67
2022/02/16 04:13:57;;;;;;;4.40;1.00;;;5.30;99.90;;;-146.41;100.00;57768.22;4943611;28;20146;-67
2022/02/16 04:16:24;;;;;;;1.80;0.70;;;5.30;99.90;;;-146.41;100.00;57768.22;4941253;28;20051;-67
2022/02/16 04:18:51;;;;;;;4.35;1.10;;;5.30;99.90;;;-146.41;100.00;57768.22;4938665;28;20047;-67
2022/02/16 04:21:19;;;;;;;5.32;1.05;;;5.30;99.90;;;-146.41;100.00;57768.22;4943499;28;20063;-67
2022/02/16 04:23:46;;;;;;;4.93;0.80;;;5.30;99.90;;;-146.41;100.00;57768.22;4943316;28;20061;-67
2022/02/16 04:26:13;;;;;;;1.90;0.70;;;5.30;99.90;;;-146.41;100.00;57768.22;4940410;28;20086;-67
2022/02/16 04:28:42;;;;;;;2.83;0.93;;;5.30;99.90;;;-146.41;100.00;57768.22;4941271;28;20504;-67
2022/02/16 04:31:09;;;;;;;5.22;1.02;;;5.20;99.90;;;-146.41;100.00;57768.22;4941959;28;20602;-67
2022/02/16 04:33:36;;;;;;;2.30;0.80;;;5.30;99.90;;;-146.41;100.00;57768.22;4939108;28;20051;-68
2022/02/16 04:36:06;;;;;;;1.55;0.82;;;5.30;99.90;;;-146.41;100.00;57768.22;4938696;28;20065;-67
2022/02/16 04:38:33;;;;;;;3.30;1.00;;;5.30;99.90;;;-146.41;100.00;57768.22;4944229;28;20646;-67
2022/02/16 04:41:00;;;;;;;4.35;0.82;;;5.30;99.90;;;-146.41;100.00;57768.22;4943350;29;20085;-67
2022/02/16 04:43:29;;;;;;;3.17;0.98;;;5.30;99.90;;;-146.41;100.00;57768.22;4943280;28;20548;-67
2022/02/16 04:45:56;;;;;;;3.97;0.57;;;5.30;99.90;;;-146.41;100.00;57768.22;4940508;28;20043;-67
2022/02/16 04:48:23;;;;;;;3.13;0.85;;;5.30;99.90;;;-146.41;100.00;57768.22;4929224;29;20135;-67
2022/02/16 04:50:50;;;;;;;4.57;0.85;;;5.30;99.90;;;-146.41;100.00;57768.22;4913979;29;20039;-68
2022/02/16 04:53:17;;;;;;;2.30;0.90;;;5.30;99.90;;;-146.41;100.00;57768.22;4940505;28;20046;-67
2022/02/16 04:55:44;;;;;;;4.63;1.40;;;5.30;99.90;;;-146.41;100.00;57768.22;4939532;28;20191;-67
2022/02/16 04:58:11;;;;;;;5.97;1.00;;;5.30;99.90;;;-146.41;100.00;57768.22;4946049;28;20129;-67
2022/02/16 05:00:37;;;;;;;4.10;1.13;;;5.40;99.90;;;-146.41;100.00;57768.22;4941446;28;20135;-67
2022/02/16 05:03:05;;;;;;;3.22;0.80;;;5.40;99.90;;;-146.41;100.00;57768.22;4943140;29;20066;-67
2022/02/16 05:05:32;;;;;;;3.85;1.08;;;5.40;99.90;;;-146.41;100.00;57768.22;4940951;28;20047;-67
2022/02/16 05:07:59;;;;;;;2.63;1.17;;;5.40;99.90;;;-146.41;100.00;57768.22;4943852;29;20150;-67
2022/02/16 05:10:26;;;;;;;3.13;0.98;;;5.40;99.90;;;-146.41;100.00;57768.22;4947730;28;20568;-67
2022/02/16 05:12:53;;;;;;;1.77;0.82;;;5.40;99.90;;;-146.41;100.00;57768.22;4948272;28;20130;-67
2022/02/16 05:15:20;;;;;;;4.32;1.20;;;5.40;99.90;;;-146.41;100.00;57768.22;4948740;28;20449;-67
2022/02/16 05:17:47;;;;;;;2.53;1.00;;;5.40;99.90;;;-146.41;100.00;57768.22;4949079;29;20071;-67
2022/02/16 05:20:13;;;;;;;3.10;1.00;;;5.40;99.90;;;-146.41;100.00;57768.22;4949254;28;20071;-67
2022/02/16 05:22:41;;;;;;;5.00;1.17;;;5.30;99.90;;;-146.41;100.00;57768.22;4949669;29;20146;-67
2022/02/16 05:25:08;;;;;;;3.38;0.80;;;5.40;99.90;;;-146.41;100.00;57768.22;4943756;29;20532;-67
2022/02/16 05:27:35;;;;;;;3.22;0.88;;;5.30;99.90;;;-146.41;100.00;57768.22;4947197;28;20055;-67
2022/02/16 05:30:04;;;;;;;1.52;0.80;;;5.30;99.90;;;-146.41;100.00;57768.22;4949921;29;20051;-68
2022/02/16 05:32:32;;;;;;;2.97;1.00;;;5.40;99.90;;;-146.41;100.00;57768.22;4932171;29;20480;-67
2022/02/16 05:35:00;;;;;;;2.92;0.73;;;5.40;99.90;;;-146.41;100.00;57768.22;4946907;28;20162;-67
2022/02/16 05:37:28;;;;;;;2.75;0.80;;;5.40;99.90;;;-146.41;100.00;57768.22;4947327;29;20078;-68
2022/02/16 05:39:55;;;;;;;3.45;0.68;;;5.40;99.90;;;-146.41;100.00;57768.22;4927386;29;20138;-68
2022/02/16 05:42:24;;;;;;;6.43;1.23;;;5.50;99.90;;;-146.41;100.00;57768.22;4947503;28;20150;-67
2022/02/16 05:44:51;;;;;;;3.38;1.00;;;5.40;99.90;;;-146.41;100.00;57768.22;4945281;28;20107;-68
2022/02/16 05:47:18;;;;;;;3.47;1.25;;;5.30;99.90;;;-146.41;100.00;57768.22;4950889;29;20130;-68
2022/02/16 05:49:44;;;;;;;2.15;0.95;;;5.40;99.90;;;-146.41;100.00;57768.22;4945212;28;20134;-67
2022/02/16 05:52:12;;;;;;;1.85;0.93;;;5.50;99.90;;;-146.41;100.00;57768.22;4932050;29;20055;-68
2022/02/16 05:54:39;;;;;;;4.57;0.68;;;5.40;99.90;;;-146.41;100.00;57768.22;4948931;28;20150;-67
2022/02/16 05:57:06;;;;;;;2.70;0.88;;;5.40;99.90;;;-146.41;100.00;57768.22;4949897;29;20130;-67
2022/02/16 05:59:34;;;;;;;1.80;0.90;;;5.40;99.90;;;-146.41;100.00;57768.22;4945551;29;20424;-67
2022/02/16 06:02:04;;;;;;;1.85;0.70;;;5.40;99.90;;;-146.41;100.00;57768.22;4948119;29;20065;-67
2022/02/16 06:04:32;;;;;;;3.40;1.00;;;5.50;99.90;;;-146.41;100.00;57768.22;4948967;29;20226;-67
2022/02/16 06:07:01;;;;;;;2.15;1.10;;;5.40;99.90;;;-146.41;100.00;57768.22;4943625;29;20544;-67
2022/02/16 06:09:28;;;;;;;3.05;0.90;;;5.50;99.90;;;-146.41;100.00;57768.22;4951061;29;20134;-67
2022/02/16 06:11:55;;;;;;;1.42;0.80;;;5.40;99.90;;;-146.41;100.00;57768.22;4947170;28;20179;-67
2022/02/16 06:14:22;;;;;;;3.75;1.00;;;5.50;99.90;;;-146.41;100.00;57768.22;4947339;29;20141;-68
2022/02/16 06:16:49;;;;;;;2.30;0.90;;;5.50;99.90;;;-146.41;100.00;57768.22;4942819;29;20483;-67
2022/02/16 06:19:16;;;;;;;2.20;1.10;;;5.40;99.90;;;-146.41;100.00;57768.22;4946487;29;20499;-67
2022/02/16 06:21:44;;;;;;;2.67;0.93;;;5.50;99.90;;;-146.41;100.00;57768.22;4945144;28;20055;-68
2022/02/16 06:24:11;;;;;;;2.42;0.80;;;5.50;99.90;;;-146.41;100.00;57768.22;4943100;28;20059;-67
2022/02/16 06:26:37;;;;;;;3.45;1.00;;;5.50;99.90;;;-146.41;100.00;57768.22;4946028;28;20074;-67
2022/02/16 06:29:08;;;;;;;2.60;0.90;;;5.50;99.90;;;-146.41;100.00;57768.22;4932749;29;20151;-67
2022/02/16 06:31:35;;;;;;;3.72;1.05;;;5.40;99.90;;;-146.41;100.00;57768.22;4926161;29;20051;-68
2022/02/16 06:34:05;;;;;;;3.95;0.88;;;5.40;99.90;;;-146.41;100.00;57768.22;4944348;29;20102;-67
2022/02/16 06:36:32;;;;;;;4.22;0.90;;;5.50;99.90;;;-146.41;100.00;57768.22;4942751;29;20050;-67
2022/02/16 06:38:59;;;;;;;2.83;0.90;;;5.40;99.90;;;-146.41;100.00;57768.22;4926586;29;20134;-67
2022/02/16 06:41:28;;;;;;;2.53;0.85;;;5.40;99.90;;;-146.41;100.00;57768.22;4942670;29;20398;-67
2022/02/16 06:43:55;;;;;;;3.47;0.93;;;5.40;99.90;;;-146.41;100.00;57768.22;4941761;29;20488;-68
2022/02/16 06:46:22;;;;;;;4.90;0.82;;;5.50;99.90;;;-146.41;100.00;57768.22;4945214;29;20060;-67
2022/02/16 06:48:49;;;;;;;2.38;0.82;;;5.50;99.90;;;-146.41;100.00;57768.22;4944151;29;20089;-67
2022/02/16 06:51:17;;;;;;;2.08;0.80;;;5.50;99.90;;;-146.41;100.00;57768.22;4942129;29;20139;-68
2022/02/16 06:53:45;;;;;;;4.72;1.20;;;5.50;99.90;;;-146.41;100.00;57768.22;4944031;29;20519;-67
2022/02/16 06:56:14;;;;;;;1.92;0.93;;;5.60;99.90;;;-146.41;100.00;57768.22;4943013;29;20043;-67
2022/02/16 06:58:41;;;;;;;2.05;0.73;;;5.60;99.90;;;-146.41;100.00;57768.22;4942621;29;20054;-67
2022/02/16 07:01:10;;;;;;;3.45;1.60;;;5.50;99.90;;;-146.41;100.00;57768.22;4942638;29;20043;-68
2022/02/16 07:03:37;;;;;;;2.47;0.88;;;5.60;99.90;;;-146.41;100.00;57768.22;4931182;29;20412;-67
2022/02/16 07:06:04;;;;;;;3.42;0.90;;;5.60;99.90;;;-146.41;100.00;57768.22;4944293;29;20051;-67
2022/02/16 07:08:31;;;;;;;2.30;0.73;;;5.70;99.90;;;-146.41;100.00;57768.22;4927572;29;20060;-64
2022/02/16 07:11:00;;;;;;;2.05;0.90;;;5.60;99.90;;;-146.41;100.00;57768.22;4940983;29;20138;-66
2022/02/16 07:13:27;;;;;;;4.88;1.00;;;5.60;99.90;;;-146.41;100.00;57768.22;4939446;28;20138;-66
2022/02/16 07:15:54;;;;;;;2.83;0.85;;;5.60;99.90;;;-146.41;100.00;57768.22;4943924;29;20126;-66
2022/02/16 07:18:21;;;;;;;3.03;0.80;;;5.70;99.90;;;-146.41;100.00;57768.22;4938619;29;20140;-66
2022/02/16 07:20:48;;;;;;;3.45;1.17;;;5.70;99.90;;;-146.41;100.00;57768.22;4936981;29;20059;-66
2022/02/16 07:23:15;;;;;;;2.20;1.00;;;5.70;99.90;;;-146.41;100.00;57768.22;4938501;29;20218;-66
2022/02/16 07:25:42;;;;;;;2.80;1.05;;;5.70;99.90;;;-146.41;100.00;57768.22;4940280;28;20143;-66
2022/02/16 07:28:14;;;;;;;2.38;1.17;;;5.70;99.90;;;-146.41;100.00;57768.22;4945463;29;20061;-66
2022/02/16 07:30:45;;;;;;;1.73;0.80;;;5.70;99.90;;;-146.41;100.00;57768.22;4941302;29;20079;-66
2022/02/16 07:33:13;;;;;;;1.15;0.60;;;5.80;99.90;;;-146.41;100.00;57768.22;4939559;28;20063;-66
2022/02/16 07:35:40;;;;;;;2.72;1.10;;;5.80;99.90;;;-146.41;100.00;57768.22;4940629;29;20614;-66
2022/02/16 07:38:06;;;;;;;1.60;0.80;;;5.70;99.90;;;-146.41;100.00;57768.22;4931657;29;20139;-66
2022/02/16 07:40:33;;;;;;;2.90;0.90;;;5.70;99.90;;;-146.41;100.00;57768.22;4924986;29;20512;-66
2022/02/16 07:43:00;;;;;;;1.48;0.55;;;5.80;99.90;;;-146.41;100.00;57768.22;4942727;29;20134;-66
2022/02/16 07:45:28;;;;;;;1.33;0.55;;;5.70;99.90;;;-146.41;100.00;57768.22;4941934;29;20289;-66
2022/02/16 07:47:56;;;;;;;5.03;1.27;;;5.80;99.90;;;-146.41;100.00;57768.22;4942230;28;20083;-66
2022/02/16 07:50:23;;;;;;;3.83;1.10;;;5.80;99.90;;;-146.41;100.00;57768.22;4942465;29;20047;-66
2022/02/16 07:52:50;;;;;;;2.35;0.73;;;5.80;99.90;;;-146.41;100.00;57768.22;4939834;29;20086;-66
2022/02/16 07:55:19;;;;;;;3.80;0.95;;;5.80;99.90;;;-146.41;100.00;57768.22;4943109;29;20086;-66
2022/02/16 07:57:47;;;;;;;2.50;0.50;;;5.70;99.90;;;-146.41;100.00;57768.22;4926872;29;20067;-66
2022/02/16 08:00:14;;;;;;;2.83;0.80;;;5.80;99.90;;;-146.41;100.00;57768.22;4925099;29;20078;-66
2022/02/16 08:02:41;;;;;;;3.17;0.80;;;5.80;99.90;;;-146.41;100.00;57768.22;4938361;29;20165;-66
2022/02/16 08:05:08;;;;;;;1.10;0.63;;;5.70;99.90;;;-146.41;100.00;57768.22;4941588;28;20119;-66
2022/02/16 08:07:37;;;;;;;2.60;0.70;;;5.80;99.90;;;-146.41;100.00;57768.22;4926261;29;20051;-66
2022/02/16 08:10:05;;;;;;;2.88;0.80;;;5.80;99.90;;;-146.41;100.00;57768.22;4937556;29;20552;-66
2022/02/16 08:12:52;;;;;;;2.35;0.70;;;5.80;99.90;;;-146.41;100.00;57768.22;4940398;29;20047;-66
2022/02/16 08:15:20;;;;;;;1.50;0.70;;;5.80;99.90;;;-146.41;100.00;57768.22;4927446;29;20164;-66
2022/02/16 08:17:47;;;;;;;2.08;0.60;;;5.80;99.90;;;-146.41;100.00;57768.22;4941390;29;20158;-66
2022/02/16 08:20:14;;;;;;;0.90;0.50;;;5.80;99.90;;;-146.41;100.00;57768.22;4943147;29;20153;-66
2022/02/16 08:22:41;;;;;;;2.40;0.82;;;5.80;99.90;;;-146.41;100.00;57768.22;4929474;29;20417;-66
2022/02/16 08:25:09;;;;;;;2.97;0.50;;;5.90;99.90;;;-146.41;100.00;57768.22;4939779;29;20093;-66
2022/02/16 08:27:37;;;;;;;4.65;0.50;;;5.90;99.90;;;-146.41;100.00;57768.22;4940078;29;20051;-66
2022/02/16 08:30:05;;;;;;;1.58;0.70;;;5.90;99.90;;;-146.41;100.00;57768.22;4945195;29;20179;-66
2022/02/16 08:32:37;;;;;;;3.17;0.80;;;5.90;99.90;;;-146.41;100.00;57768.22;4944498;29;20150;-66
2022/02/16 08:35:09;;;;;;;1.25;0.60;;;5.90;99.90;;;-146.41;100.00;57768.22;4943624;28;20134;-66
2022/02/16 08:37:40;;;;;;;2.78;0.70;;;6.00;99.90;;;-146.41;100.00;57768.22;4941368;29;20058;-66
2022/02/16 08:40:08;;;;;;;2.45;0.63;;;6.10;99.90;;;-146.41;100.00;57768.22;4924349;29;20512;-66
2022/02/16 08:42:40;;;;;;;2.47;1.00;;;6.00;99.90;;;-146.41;100.00;57768.22;4940188;28;20147;-66
2022/02/16 08:45:09;;;;;;;2.05;0.90;;;6.00;99.90;;;-146.41;100.00;57768.22;4939144;28;20078;-67
2022/02/16 08:47:38;;;;;;;1.77;0.90;;;6.00;99.90;;;-146.41;100.00;57768.22;4938708;29;20463;-66
2022/02/16 08:50:06;;;;;;;1.02;0.60;;;6.10;99.90;;;-146.41;100.00;57768.22;4937174;29;20134;-66
2022/02/16 08:52:34;;;;;;;2.40;0.50;;;6.10;99.90;;;-146.41;100.00;57768.22;4937761;29;20126;-66
2022/02/16 08:55:01;;;;;;;1.05;0.50;;;6.00;99.90;;;-146.41;100.00;57768.22;4941401;29;20134;-66
2022/02/16 08:57:28;;;;;;;3.83;0.68;;;6.00;99.90;;;-146.41;100.00;57768.22;4941601;29;20134;-66
2022/02/16 08:59:55;;;;;;;1.80;0.65;;;6.20;99.90;;;-146.41;100.00;57768.22;4936764;29;20097;-66
2022/02/16 09:02:22;;;;;;;0.70;0.50;;;6.20;99.90;;;-146.41;100.00;57768.22;4937207;28;20160;-65
2022/02/16 09:04:49;;;;;;;2.05;0.95;;;6.20;99.90;;;-146.41;100.00;57768.22;4939612;29;20503;-66
2022/02/16 09:07:29;;;;;;;2.58;0.90;;;6.30;99.90;;;-146.41;100.00;57768.22;4942626;29;20247;-66
2022/02/16 09:09:59;;;;;;;2.58;0.50;;;6.30;99.90;;;-146.41;100.00;57768.22;4943071;29;20497;-66
2022/02/16 09:12:27;;;;;;;1.77;0.85;;;6.30;99.90;;;-146.41;100.00;57768.22;4939991;29;20079;-65
2022/02/16 09:14:56;;;;;;;3.47;0.60;;;6.30;99.90;;;-146.41;100.00;57768.22;4921577;29;20134;-66
2022/02/16 09:17:24;;;;;;;1.50;0.65;;;6.30;99.90;;;-146.41;100.00;57768.22;4940209;29;20055;-66
2022/02/16 09:19:56;;;;;;;1.25;0.43;;;6.30;99.90;;;-146.41;100.00;57768.22;4941972;29;20401;-66
2022/02/16 09:22:25;;;;;;;6.40;0.50;;;6.30;99.90;;;-146.41;100.00;57768.22;4940078;29;20475;-65
2022/02/16 09:24:53;;;;;;;1.15;0.40;;;6.30;99.90;;;-146.41;100.00;57768.22;4925982;29;20142;-66
2022/02/16 09:27:21;;;;;;;0.98;0.47;;;6.40;99.90;;;-146.41;100.00;57768.22;4940440;29;20481;-66
2022/02/16 09:29:52;;;;;;;1.73;0.50;;;6.50;99.90;;;-146.41;100.00;57768.22;4942226;29;20062;-66
2022/02/16 09:32:22;;;;;;;1.23;0.40;;;6.50;99.90;;;-146.41;100.00;57768.22;4926276;29;20493;-66
2022/02/16 09:34:52;;;;;;;1.33;0.40;;;6.50;99.90;;;-146.41;100.00;57768.22;4935457;29;20082;-66
2022/02/16 09:37:19;;;;;;;0.80;0.40;;;6.50;99.90;;;-146.41;100.00;57768.22;4938415;29;20074;-66
2022/02/16 09:39:46;;;;;;;1.30;0.50;;;6.60;99.90;;;-146.41;100.00;57768.22;4941646;29;20249;-66
2022/02/16 09:42:13;;;;;;;0.70;0.40;;;6.60;99.90;;;-146.41;100.00;57768.22;4940856;28;20138;-66
2022/02/16 09:45:01;;;;;;;1.40;0.43;;;6.70;99.90;;;-146.41;100.00;57768.22;4940315;28;20082;-65
2022/02/16 09:47:30;;;;;;;0.68;0.43;;;6.60;99.90;;;-146.41;100.00;57768.22;4937536;29;20130;-66
2022/02/16 09:49:59;;;;;;;1.35;0.40;;;6.70;99.90;;;-146.41;100.00;57768.22;4937986;29;20166;-68
2022/02/16 09:52:27;;;;;;;0.88;0.45;;;6.80;99.90;;;-146.41;100.00;57768.22;4936719;29;20046;-65
2022/02/16 09:54:57;;;;;;;2.35;0.57;;;6.70;99.90;;;-146.41;100.00;57768.22;4939357;29;20043;-67
2022/02/16 09:57:24;;;;;;;0.75;0.40;;;6.70;99.90;;;-146.41;100.00;57768.22;4943330;29;20725;-68
2022/02/16 09:59:58;;;;;;;0.65;0.40;;;6.80;99.90;;;-146.41;100.00;57768.22;4948017;29;21728;-65
2022/02/16 10:02:35;;;;;;;1.67;0.60;;;6.80;99.90;;;-146.41;100.00;57768.22;4943640;28;20052;-67
2022/02/16 10:05:05;;;;;;;0.90;0.52;;;6.90;99.90;;;-146.41;100.00;57768.22;4943594;29;20438;-67
2022/02/16 10:07:38;;;;;;;2.90;0.60;;;6.90;99.90;;;-146.41;100.00;57768.22;4945104;28;20051;-67